.
WxDataArchive / Data Records for 2008-02-18
2008-02-17 February 2008 2008-02-19

Data Records for Monday, 18 February 2008

Time	Temp	Chill	HIndex	Humid	Dewpt	 Wind 	HiWind	WindDir	Rain 	Barom 
-----	----	-----	------	-----	-----	------	------	-------	-----	----- 
00:00	32.7	27.9	32.7	85	28.7	5	14	270	0.00	29.389 
00:05	32.5	27.7	32.5	86	28.8	5	11	270	0.00	29.391 
00:10	32.5	27.7	32.5	86	28.8	5	13	248	0.00	29.395 
00:15	32.4	26.7	32.4	86	28.7	6	16	270	0.00	29.400 
00:20	32.2	25.1	32.2	85	28.2	8	19	270	0.00	29.402 
00:25	32.4	26.7	32.4	84	28.1	6	15	270	0.00	29.406 
00:30	32.4	26.7	32.4	83	27.8	6	16	270	0.00	29.412 
00:35	32.2	24.5	32.2	82	27.3	9	19	248	0.00	29.407 
00:40	32.1	26.3	32.1	83	27.5	6	17	270	0.00	29.412 
00:45	31.9	26.1	31.9	84	27.6	6	13	270	0.00	29.416 
00:50	31.9	26.1	31.9	84	27.6	6	14	270	0.00	29.416 
00:55	31.9	27.0	31.9	84	27.6	5	11	270	0.00	29.421 
01:00	31.9	27.0	31.9	83	27.3	5	14	270	0.00	29.422 
01:05	32.1	26.3	32.1	82	27.2	6	15	270	0.00	29.428 
01:10	32.1	27.2	32.1	81	26.9	5	12	270	0.00	29.431 
01:15	32.1	26.3	32.1	80	26.6	6	13	270	0.00	29.435 
01:20	32.1	26.3	32.1	80	26.6	6	17	270	0.00	29.443 
01:25	32.1	26.3	32.1	79	26.3	6	16	270	0.00	29.444 
01:30	31.9	26.1	31.9	78	25.8	6	16	270	0.00	29.444 
01:35	31.9	27.0	31.9	78	25.8	5	13	270	0.00	29.445 
01:40	31.9	26.1	31.9	78	25.8	6	14	270	0.00	29.447 
01:45	31.8	27.8	31.8	79	26.0	4	13	270	0.00	29.447 
01:50	31.8	27.8	31.8	79	26.0	4	11	270	0.00	29.448 
01:55	31.8	27.8	31.8	79	26.0	4	12	270	0.00	29.449 
02:00	31.8	26.8	31.8	79	26.0	5	11	270	0.00	29.454 
02:05	31.8	26.8	31.8	79	26.0	5	11	270	0.00	29.456 
02:10	31.8	31.8	31.8	79	26.0	3	9	270	0.00	29.460 
02:15	31.8	27.8	31.8	79	26.0	4	11	270	0.00	29.462 
02:20	31.9	27.0	31.9	79	26.1	5	11	270	0.00	29.466 
02:25	31.9	26.1	31.9	79	26.1	6	12	270	0.00	29.471 
02:30	31.9	28.0	31.9	79	26.1	4	11	270	0.00	29.477 
02:35	31.9	28.0	31.9	79	26.1	4	10	270	0.00	29.476 
02:40	31.9	27.0	31.9	79	26.1	5	13	270	0.00	29.478 
02:45	31.9	28.0	31.9	79	26.1	4	12	270	0.00	29.488 
02:50	31.9	28.0	31.9	79	26.1	4	11	270	0.00	29.483 
02:55	31.9	31.9	31.9	79	26.1	3	8	248	0.00	29.478 
03:00	31.9	28.0	31.9	79	26.1	4	11	270	0.00	29.478 
03:05	31.9	31.9	31.9	79	26.1	3	7	270	0.00	29.476 
03:10	31.9	31.9	31.9	79	26.1	3	12	270	0.00	29.480 
03:15	31.9	31.9	31.9	79	26.1	3	11	270	0.00	29.487 
03:20	31.9	31.9	31.9	79	26.1	3	8	270	0.00	29.488 
03:25	31.9	31.9	31.9	79	26.1	3	6	270	0.00	29.492 
03:30	31.9	31.9	31.9	79	26.1	3	11	248	0.00	29.497 
03:35	31.9	31.9	31.9	79	26.1	2	9	248	0.00	29.502 
03:40	32.1	32.1	32.1	79	26.3	3	10	270	0.00	29.500 
03:45	32.1	32.1	32.1	79	26.3	2	6	248	0.00	29.498 
03:50	32.1	32.1	32.1	79	26.3	3	9	248	0.00	29.499 
03:55	32.1	32.1	32.1	79	26.3	3	10	248	0.00	29.505 
04:00	32.1	32.1	32.1	79	26.3	3	7	248	0.00	29.506 
04:05	32.1	32.1	32.1	79	26.3	3	11	270	0.00	29.507 
04:10	32.2	28.3	32.2	79	26.4	4	9	270	0.00	29.506 
04:15	32.2	32.2	32.2	79	26.4	3	10	270	0.00	29.506 
04:20	32.2	28.3	32.2	79	26.4	4	10	270	0.00	29.505 
04:25	32.2	28.3	32.2	79	26.4	4	10	270	0.00	29.505 
04:30	32.2	28.3	32.2	80	26.7	4	10	248	0.00	29.508 
04:35	32.2	28.3	32.2	80	26.7	4	10	270	0.00	29.509 
04:40	32.2	28.3	32.2	81	27.0	4	11	248	0.00	29.516 
04:45	32.2	32.2	32.2	81	27.0	2	10	248	0.00	29.521 
04:50	32.2	28.3	32.2	81	27.0	4	12	248	0.00	29.517 
04:55	32.2	32.2	32.2	81	27.0	3	11	248	0.00	29.518 
05:00	32.4	27.5	32.4	81	27.2	5	13	270	0.00	29.512 
05:05	32.4	32.4	32.4	81	27.2	3	9	270	0.00	29.512 
05:10	32.4	32.4	32.4	81	27.2	3	7	270	0.00	29.511 
05:15	32.4	32.4	32.4	81	27.2	3	9	270	0.00	29.510 
05:20	32.4	28.5	32.4	81	27.2	4	13	270	0.00	29.511 
05:25	32.4	28.5	32.4	81	27.2	4	9	248	0.00	29.518 
05:30	32.5	28.7	32.5	81	27.3	4	10	270	0.00	29.521 
05:35	32.5	32.5	32.5	81	27.3	3	9	270	0.00	29.524 
05:40	32.5	32.5	32.5	81	27.3	2	7	248	0.00	29.525 
05:45	32.5	32.5	32.5	81	27.3	3	11	248	0.00	29.529 
05:50	32.5	32.5	32.5	81	27.3	3	9	248	0.00	29.533 
05:55	32.5	28.7	32.5	81	27.3	4	9	270	0.00	29.536 
06:00	32.7	28.9	32.7	81	27.5	4	12	270	0.00	29.537 
06:05	32.7	28.9	32.7	81	27.5	4	10	270	0.00	29.541 
06:10	32.7	32.7	32.7	81	27.5	3	7	248	0.00	29.540 
06:15	32.5	28.7	32.5	81	27.3	4	11	270	0.00	29.538 
06:20	32.5	28.7	32.5	81	27.3	4	12	248	0.00	29.538 
06:25	32.5	28.7	32.5	81	27.3	4	9	248	0.00	29.539 
06:30	32.5	32.5	32.5	82	27.6	3	9	248	0.00	29.541 
06:35	32.4	32.4	32.4	82	27.5	3	12	248	0.00	29.542 
06:40	32.4	28.5	32.4	82	27.5	4	11	270	0.00	29.544 
06:45	32.4	27.5	32.4	82	27.5	5	12	248	0.00	29.546 
06:50	32.4	32.4	32.4	83	27.8	3	10	248	0.00	29.547 
06:55	32.2	28.3	32.2	83	27.6	4	11	270	0.00	29.549 
07:00	32.2	32.2	32.2	84	27.9	3	11	248	0.00	29.549 
07:05	32.2	27.3	32.2	84	27.9	5	11	248	0.00	29.556 
07:10	32.2	28.3	32.2	84	27.9	4	11	270	0.00	29.558 
07:15	32.2	28.3	32.2	84	27.9	4	10	248	0.00	29.557 
07:20	32.2	32.2	32.2	84	27.9	3	7	248	0.00	29.558 
07:25	32.2	32.2	32.2	84	27.9	3	7	270	0.00	29.558 
07:30	32.2	32.2	32.2	85	28.2	3	11	248	0.00	29.558 
07:35	32.2	28.3	32.2	85	28.2	4	9	270	0.00	29.560 
07:40	32.2	32.2	32.2	85	28.2	3	10	248	0.00	29.560 
07:45	32.4	32.4	32.4	85	28.4	3	9	248	0.00	29.561 
07:50	32.4	28.5	32.4	84	28.1	4	11	248	0.00	29.562 
07:55	32.4	32.4	32.4	84	28.1	3	10	270	0.00	29.565 
08:00	32.5	32.5	32.5	84	28.2	3	11	270	0.00	29.565 
08:05	32.5	32.5	32.5	84	28.2	3	7	248	0.00	29.569 
08:10	32.5	28.7	32.5	84	28.2	4	12	248	0.00	29.572 
08:15	32.5	28.7	32.5	84	28.2	4	10	270	0.00	29.574 
08:20	32.5	28.7	32.5	84	28.2	4	10	270	0.00	29.574 
08:25	32.5	32.5	32.5	83	27.9	3	8	270	0.00	29.576 
08:30	32.7	28.9	32.7	83	28.1	4	14	270	0.00	29.578 
08:35	32.7	28.9	32.7	83	28.1	4	11	270	0.00	29.578 
08:40	32.7	32.7	32.7	82	27.8	3	7	270	0.00	29.579 
08:45	32.8	29.0	32.8	82	27.9	4	12	248	0.00	29.579 
08:50	32.8	32.8	32.8	82	27.9	3	9	248	0.00	29.582 
08:55	32.8	29.0	32.8	82	27.9	4	9	248	0.00	29.585 
09:00	32.8	29.0	32.8	83	28.2	4	11	270	0.00	29.591 
09:05	32.7	27.9	32.7	84	28.4	5	10	248	0.00	29.595 
09:10	32.7	28.9	32.7	84	28.4	4	15	248	0.00	29.595 
09:15	32.5	28.7	32.5	85	28.5	4	7	248	0.00	29.596 
09:20	32.4	26.7	32.4	85	28.4	6	17	270	0.00	29.598 
09:25	32.4	28.5	32.4	86	28.7	4	13	248	0.00	29.599 
09:30	32.2	27.3	32.2	86	28.5	5	10	248	0.00	29.600 
09:35	32.2	32.2	32.2	86	28.5	3	7	248	0.00	29.603 
09:40	32.2	28.3	32.2	86	28.5	4	7	270	0.00	29.604 
09:45	32.4	32.4	32.4	86	28.7	3	7	270	0.00	29.605 
09:50	32.5	32.5	32.5	85	28.5	3	8	248	0.00	29.603 
09:55	32.7	28.9	32.7	84	28.4	4	10	248	0.00	29.603 
10:00	32.9	32.9	32.9	83	28.3	3	7	248	0.00	29.602 
10:05	33.2	33.2	33.2	83	28.6	2	6	248	0.00	29.604 
10:10	33.4	29.7	33.4	81	28.2	4	10	248	0.00	29.605 
10:15	33.4	29.7	33.4	80	27.9	4	10	270	0.00	29.606 
10:20	33.5	33.5	33.5	80	28.0	3	9	248	0.00	29.603 
10:25	33.7	30.0	33.7	79	27.9	4	11	248	0.00	29.603 
10:30	33.8	33.8	33.8	80	28.3	3	7	248	0.00	29.602 
10:35	33.7	30.0	33.7	79	27.9	4	10	270	0.00	29.605 
10:40	31.9	25.4	31.9	81	26.7	7	19	270	0.00	29.624 
10:45	31.0	25.9	31.0	81	25.9	5	14	270	0.00	29.626 
10:50	31.2	25.3	31.2	76	24.5	6	13	270	0.00	29.629 
10:55	31.6	25.8	31.6	74	24.3	6	14	270	0.00	29.631 
11:00	31.8	25.3	31.8	69	22.8	7	15	270	0.00	29.633 
11:05	31.8	26.8	31.8	68	22.5	5	11	270	0.00	29.633 
11:10	32.4	27.5	32.4	65	22.0	5	12	270	0.00	29.635 
11:15	32.7	27.1	32.7	65	22.3	6	13	270	0.00	29.635 
11:20	32.7	27.1	32.7	63	21.5	6	19	270	0.00	29.633 
11:25	32.7	26.3	32.7	61	20.8	7	18	270	0.00	29.635 
11:30	32.7	26.3	32.7	61	20.8	7	20	270	0.00	29.635 
11:35	32.7	27.1	32.7	61	20.8	6	14	270	0.00	29.642 
11:40	32.5	26.1	32.5	61	20.6	7	30	270	0.01	29.638 
11:45	32.9	27.3	32.9	60	20.6	6	15	270	0.00	29.642 
11:50	33.8	28.4	33.8	60	21.4	6	15	270	0.00	29.645 
11:55	33.8	27.0	33.8	53	18.5	8	20	270	0.00	29.648 
12:00	33.8	26.5	33.8	54	18.9	9	25	270	0.00	29.649 
12:05	33.5	25.1	33.5	51	17.3	11	26	270	0.00	29.649 
12:10	33.4	28.7	33.4	56	19.4	5	11	270	0.00	29.650 
12:15	32.7	27.1	32.7	54	17.9	6	16	270	0.00	29.652 
12:20	32.4	27.5	32.4	55	18.1	5	13	270	0.00	29.655 
12:25	31.8	26.0	31.8	53	16.6	6	18	270	0.00	29.651 
12:30	32.1	25.6	32.1	53	16.9	7	18	270	0.00	29.650 
12:35	32.4	24.2	32.4	48	14.9	10	25	270	0.00	29.647 
12:40	32.5	24.9	32.5	46	14.0	9	22	270	0.00	29.650 
12:45	32.8	25.2	32.8	45	13.8	9	23	270	0.00	29.650 
12:50	32.2	25.7	32.2	47	14.3	7	13	270	0.00	29.650 
12:55	31.9	24.1	31.9	47	14.0	9	21	270	0.00	29.650 
13:00	31.8	23.5	31.8	47	13.9	10	23	270	0.00	29.650 
13:05	32.1	23.9	32.1	47	14.2	10	19	248	0.00	29.651 
13:10	32.4	25.3	32.4	49	15.4	8	22	270	0.00	29.653 
13:15	32.2	25.1	32.2	47	14.3	8	19	270	0.00	29.652 
13:20	32.4	26.0	32.4	47	14.4	7	18	270	0.00	29.653 
13:25	31.9	24.1	31.9	47	14.0	9	22	270	0.00	29.653 
13:30	31.5	23.6	31.5	50	15.0	9	20	270	0.00	29.656 
13:35	31.2	25.3	31.2	51	15.2	6	14	270	0.00	29.660 
13:40	30.7	23.9	30.7	50	14.3	7	16	270	0.00	29.661 
13:45	30.4	22.9	30.4	51	14.5	8	22	270	0.00	29.659 
13:50	31.2	23.3	31.2	50	14.8	9	21	270	0.00	29.660 
13:55	32.1	26.3	32.1	52	16.5	6	17	270	0.00	29.655 
14:00	32.7	27.1	32.7	50	16.1	6	12	270	0.00	29.654 
14:05	32.5	25.5	32.5	50	16.0	8	19	270	0.00	29.653 
14:10	31.2	23.3	31.2	51	15.2	9	22	270	0.00	29.657 
14:15	30.6	23.1	30.6	54	16.0	8	15	270	0.00	29.662 
14:20	30.3	23.4	30.3	56	16.5	7	16	270	0.00	29.655 
14:25	30.3	24.2	30.3	56	16.5	6	15	270	0.00	29.662 
14:30	31.0	25.9	31.0	56	17.2	5	21	270	0.00	29.656 
14:35	31.5	24.9	31.5	54	16.8	7	17	270	0.00	29.656 
14:40	31.9	25.4	31.9	49	14.9	7	21	270	0.00	29.654 
14:45	31.8	24.6	31.8	48	14.4	8	19	270	0.00	29.659 
14:50	31.9	26.1	31.9	49	14.9	6	15	270	0.00	29.662 
14:55	31.6	26.6	31.6	50	15.1	5	15	270	0.00	29.662 
15:00	31.2	22.7	31.2	49	14.3	10	19	270	0.00	29.660 
15:05	31.6	25.8	31.6	50	15.1	6	15	270	0.00	29.658 
15:10	31.6	24.4	31.6	48	14.2	8	20	270	0.00	29.663 
15:15	32.1	25.6	32.1	52	16.5	7	17	270	0.00	29.667 
15:20	31.8	26.8	31.8	51	15.8	5	18	270	0.00	29.666 
15:25	30.7	24.7	30.7	54	16.0	6	17	270	0.00	29.673 
15:30	30.6	25.4	30.6	53	15.5	5	12	270	0.00	29.676 
15:35	30.0	23.1	30.0	54	15.4	7	17	270	0.00	29.679 
15:40	29.8	22.8	29.8	54	15.2	7	14	270	0.00	29.683 
15:45	29.5	21.8	29.5	53	14.5	8	15	270	0.00	29.687 
15:50	28.4	22.8	28.4	59	15.9	5	19	270	0.00	29.689 
15:55	28.1	22.5	28.1	61	16.4	5	14	270	0.00	29.688 
16:00	28.4	23.9	28.4	60	16.3	4	14	270	0.00	29.691 
16:05	28.2	22.6	28.2	61	16.5	5	10	270	0.00	29.698 
16:10	28.1	21.6	28.1	59	15.6	6	14	270	0.00	29.696 
16:15	28.2	22.6	28.2	58	15.3	5	12	270	0.00	29.694 
16:20	28.2	21.7	28.2	58	15.3	6	16	270	0.00	29.693 
16:25	28.2	21.7	28.2	57	14.9	6	16	270	0.00	29.697 
16:30	27.9	21.3	27.9	58	15.1	6	17	270	0.00	29.700 
16:35	27.6	19.5	27.6	58	14.8	8	17	270	0.00	29.700 
16:40	27.6	23.0	27.6	58	14.8	4	10	270	0.00	29.701 
16:45	27.5	20.9	27.5	56	13.9	6	17	270	0.00	29.703 
16:50	27.5	20.9	27.5	56	13.9	6	15	270	0.00	29.706 
16:55	27.0	22.3	27.0	57	13.8	4	10	270	0.00	29.711 
17:00	26.7	17.2	26.7	55	12.7	10	22	270	0.00	29.706 
17:05	26.3	18.6	26.3	54	11.9	7	18	270	0.00	29.714 
17:10	26.0	19.1	26.0	55	12.1	6	17	270	0.00	29.720 
17:15	25.7	18.7	25.7	56	12.2	6	19	270	0.00	29.719 
17:20	25.4	16.8	25.4	56	11.9	8	19	270	0.00	29.720 
17:25	25.1	17.2	25.1	58	12.4	7	15	270	0.00	29.722 
17:30	24.7	16.0	24.7	59	12.4	8	15	270	0.00	29.728 
17:35	24.5	19.4	24.5	60	12.6	4	11	270	0.00	29.730 
17:40	24.7	17.5	24.7	59	12.4	6	15	270	0.00	29.733 
17:45	24.4	18.1	24.4	57	11.4	5	15	270	0.00	29.736 
17:50	23.8	15.6	23.8	56	10.4	7	17	270	0.00	29.739 
17:55	23.5	16.1	23.5	57	10.5	6	16	270	0.00	29.740 
18:00	23.3	18.0	23.3	59	11.1	4	12	270	0.00	29.745 
18:05	23.2	14.9	23.2	58	10.6	7	17	270	0.00	29.749 
18:10	22.7	12.8	22.7	55	9.0	9	17	270	0.00	29.755 
18:15	22.2	12.9	22.2	55	8.5	8	21	270	0.00	29.761 
18:20	21.9	12.5	21.9	55	8.2	8	15	270	0.00	29.765 
18:25	21.8	14.1	21.8	58	9.3	6	17	270	0.00	29.768 
18:30	21.8	15.1	21.8	58	9.3	5	16	270	0.00	29.770 
18:35	21.8	14.1	21.8	58	9.3	6	13	270	0.00	29.771 
18:40	21.6	14.9	21.6	61	10.3	5	14	270	0.00	29.774 
18:45	21.3	13.5	21.3	66	11.7	6	14	270	0.00	29.776 
18:50	21.0	13.1	21.0	67	11.8	6	13	270	0.00	29.781 
18:55	20.8	12.9	20.8	69	12.3	6	14	270	0.00	29.788 
19:00	20.5	12.5	20.5	67	11.3	6	15	270	0.00	29.789 
19:05	20.6	14.9	20.6	65	10.7	4	8	270	0.00	29.788 
19:10	20.6	12.7	20.6	60	8.9	6	16	270	0.00	29.794 
19:15	20.6	11.8	20.6	58	8.2	7	14	270	0.00	29.792 
19:20	20.6	11.8	20.6	58	8.2	7	18	270	0.00	29.796 
19:25	20.8	12.0	20.8	59	8.8	7	19	270	0.00	29.800 
19:30	20.6	13.7	20.6	64	10.4	5	13	270	0.00	29.804 
19:35	20.3	20.3	20.3	67	11.1	3	14	270	0.00	29.801 
19:40	20.3	14.6	20.3	64	10.1	4	11	270	0.00	29.803 
19:45	20.5	11.6	20.5	61	9.2	7	17	270	0.00	29.803 
19:50	20.5	14.8	20.5	61	9.2	4	13	270	0.00	29.802 
19:55	20.6	13.7	20.6	61	9.3	5	13	270	0.00	29.802 
20:00	20.5	13.6	20.5	61	9.2	5	13	270	0.00	29.804 
20:05	20.5	13.6	20.5	61	9.2	5	12	270	0.00	29.804 
20:10	20.5	13.6	20.5	62	9.6	5	14	270	0.00	29.804 
20:15	20.5	14.8	20.5	62	9.6	4	12	270	0.00	29.804 
20:20	20.5	12.5	20.5	59	8.5	6	21	270	0.00	29.809 
20:25	20.5	12.5	20.5	58	8.1	6	19	270	0.00	29.811 
20:30	20.5	12.5	20.5	57	7.7	6	17	270	0.00	29.812 
20:35	20.5	14.8	20.5	59	8.5	4	12	270	0.00	29.812 
20:40	20.5	20.5	20.5	61	9.2	3	10	270	0.00	29.814 
20:45	20.3	20.3	20.3	60	8.7	3	7	270	0.00	29.818 
20:50	20.0	14.2	20.0	60	8.4	4	18	270	0.00	29.819 
20:55	19.9	14.1	19.9	61	8.7	4	15	270	0.00	29.819 
21:00	19.7	19.7	19.7	61	8.5	3	12	248	0.00	29.820 
21:05	19.5	11.3	19.5	58	7.2	6	12	270	0.00	29.821 
21:10	19.7	13.9	19.7	59	7.7	4	12	270	0.00	29.823 
21:15	19.7	13.9	19.7	58	7.3	4	12	270	0.00	29.820 
21:20	19.7	12.6	19.7	58	7.3	5	16	270	0.00	29.822 
21:25	19.7	13.9	19.7	59	7.7	4	13	270	0.00	29.823 
21:30	19.7	19.7	19.7	60	8.1	3	9	270	0.00	29.822 
21:35	19.7	12.6	19.7	60	8.1	5	12	270	0.00	29.826 
21:40	19.7	19.7	19.7	61	8.5	3	12	270	0.00	29.828 
21:45	19.5	11.3	19.5	60	7.9	6	14	270	0.00	29.829 
21:50	19.4	12.3	19.4	60	7.8	5	17	270	0.00	29.830 
21:55	19.4	11.2	19.4	59	7.4	6	17	270	0.00	29.826 
22:00	19.2	12.0	19.2	59	7.3	5	25	270	0.00	29.829 
22:05	19.2	13.3	19.2	59	7.3	4	12	270	0.00	29.829 
22:10	19.2	12.0	19.2	59	7.3	5	15	270	0.00	29.834 
22:15	19.1	11.9	19.1	59	7.2	5	17	270	0.00	29.833 
22:20	18.8	11.6	18.8	59	6.9	5	11	270	0.00	29.829 
22:25	18.4	11.1	18.4	58	6.1	5	11	270	0.00	29.831 
22:30	18.1	12.0	18.1	58	5.8	4	12	270	0.00	29.833 
22:35	18.0	10.6	18.0	59	6.1	5	11	270	0.00	29.833 
22:40	18.0	10.6	18.0	59	6.1	5	12	270	0.00	29.832 
22:45	18.0	18.0	18.0	61	6.9	3	9	270	0.00	29.834 
22:50	18.0	10.6	18.0	60	6.5	5	12	270	0.00	29.836 
22:55	17.8	17.8	17.8	59	5.9	3	10	270	0.00	29.832 
23:00	17.7	9.2	17.7	59	5.8	6	13	270	0.00	29.831 
23:05	17.5	11.3	17.5	59	5.6	4	14	270	0.00	29.828 
23:10	17.3	11.1	17.3	59	5.5	4	13	270	0.00	29.833 
23:15	17.3	17.3	17.3	59	5.5	3	9	270	0.00	29.834 
23:20	17.3	17.3	17.3	60	5.8	3	11	270	0.00	29.828 
23:25	17.3	17.3	17.3	61	6.2	1	3	248	0.00	29.829 
23:30	17.5	17.5	17.5	62	6.7	1	4	248	0.00	29.834 
23:35	17.5	17.5	17.5	62	6.7	1	4	270	0.00	29.832 
23:40	17.3	11.1	17.3	60	5.8	4	11	270	0.00	29.836 
23:45	17.0	10.7	17.0	59	5.2	4	11	270	0.00	29.832 
23:50	16.9	16.9	16.9	59	5.1	3	9	270	0.00	29.830 
23:55	16.7	10.4	16.7	59	4.9	4	13	270	0.00	29.830 

CoCoRaHS
IN-AL-39
A2 Web Hosting
Creative Commons License
GoDaddy
Look for:

loaded 2017-10-17 00:17:55 • last modified 2010-11-18 10:43:29
Privacy PolicyDisclaimer
• wx.awcolley.com is powered by PmWiki v.2002016 •
• all content (unless otherwise noted) © 2017 A W Colley